Time;durP1;ratioP1;P1;durP2;ratioP2;P2;SDS_P1;SDS_P2;PMS_P1;PMS_P2;Temp;Humidity;BMP_temperature;BMP_pressure;BME280_temperature;BME280_humidity;BME280_pressure;Samples;Min_cycle;Max_cycle;Signal;HPM_P1;HPM_P2
2024/03/03 03:36:10;;;;;;;1999.90;999.90;;;;;;;;;;5329381;22;20452;-68
2024/03/03 03:38:54;;;;;;;1999.90;999.90;;;;;;;;;;5034155;28;20931;-68
2024/03/03 03:41:46;;;;;;;1999.90;999.90;;;;;;;;;;5043335;28;20209;-69
2024/03/03 03:44:31;;;;;;;1999.90;999.90;;;;;;;;;;5053824;28;20591;-68
2024/03/03 03:47:16;;;;;;;1999.90;999.90;;;;;;;;;;5053681;28;20221;-68
2024/03/03 03:50:02;;;;;;;1999.90;999.90;;;;;;;;;;5053320;28;20209;-69
2024/03/03 03:52:48;;;;;;;1999.90;999.90;;;;;;;;;;5052542;28;20405;-68
2024/03/03 03:55:33;;;;;;;1999.90;999.90;;;;;;;;;;5053555;28;20740;-68
2024/03/03 03:58:18;;;;;;;1999.90;999.90;;;;;;;;;;5053512;28;20572;-68
2024/03/03 04:01:03;;;;;;;1999.90;999.90;;;;;;;;;;5053051;28;20201;-68
2024/03/03 04:03:48;;;;;;;1999.90;999.90;;;;;;;;;;5053460;28;20205;-65
2024/03/03 04:06:33;;;;;;;1999.90;999.90;;;;;;;;;;5053472;28;20299;-68
2024/03/03 04:09:19;;;;;;;1999.90;999.90;;;;;;;;;;5053117;28;20229;-68
2024/03/03 04:12:05;;;;;;;1999.90;999.90;;;;;;;;;;5053000;28;20220;-68
2024/03/03 04:14:50;;;;;;;1999.90;999.90;;;;;;;;;;5052932;28;20331;-68
2024/03/03 04:17:35;;;;;;;1999.90;999.90;;;;;;;;;;5053224;28;20276;-67
2024/03/03 04:20:19;;;;;;;1999.90;999.90;;;;;;;;;;5053158;28;20210;-68
2024/03/03 04:23:05;;;;;;;1999.90;999.90;;;;;;;;;;5052935;28;20253;-69
2024/03/03 04:25:51;;;;;;;1999.90;999.90;;;;;;;;;;5052973;28;20728;-68
2024/03/03 04:28:36;;;;;;;1999.90;999.90;;;;;;;;;;5052728;28;20701;-68
2024/03/03 04:31:21;;;;;;;1999.90;999.90;;;;;;;;;;5052672;28;20256;-68
2024/03/03 04:34:06;;;;;;;1999.90;999.90;;;;;;;;;;5052673;28;20685;-68
2024/03/03 04:36:51;;;;;;;1999.90;999.90;;;;;;;;;;5052770;28;20289;-67
2024/03/03 04:39:36;;;;;;;1999.90;999.90;;;;;;;;;;5053297;28;20197;-69
2024/03/03 04:42:22;;;;;;;1999.90;999.90;;;;;;;;;;5054267;28;20229;-69
2024/03/03 04:45:08;;;;;;;1999.90;999.90;;;;;;;;;;5052998;28;20413;-68
2024/03/03 04:47:53;;;;;;;1999.90;999.90;;;;;;;;;;5051510;28;20229;-67
2024/03/03 04:50:38;;;;;;;1999.90;999.90;;;;;;;;;;5032570;28;20201;-68
2024/03/03 04:53:23;;;;;;;1999.90;999.90;;;;;;;;;;5035447;28;20206;-69
2024/03/03 04:56:08;;;;;;;1999.90;999.90;;;;;;;;;;5042134;28;20605;-69
2024/03/03 04:58:54;;;;;;;1999.90;999.90;;;;;;;;;;5052461;28;20201;-67
2024/03/03 05:01:41;;;;;;;1999.90;999.90;;;;;;;;;;5031908;28;20209;-67
2024/03/03 05:04:27;;;;;;;1999.90;999.90;;;;;;;;;;5031702;28;20226;-69
2024/03/03 05:07:12;;;;;;;1999.90;999.90;;;;;;;;;;5031961;28;20264;-69
2024/03/03 05:09:57;;;;;;;1999.90;999.90;;;;;;;;;;5032350;28;20202;-68
2024/03/03 05:12:43;;;;;;;1999.90;999.90;;;;;;;;;;5044543;28;20580;-67
2024/03/03 05:15:29;;;;;;;1999.90;999.90;;;;;;;;;;5052112;28;20228;-69
2024/03/03 05:18:14;;;;;;;1999.90;999.90;;;;;;;;;;5051937;28;20192;-69
2024/03/03 05:20:59;;;;;;;1999.90;999.90;;;;;;;;;;5050843;28;20490;-68
2024/03/03 05:23:44;;;;;;;1999.90;999.90;;;;;;;;;;5052243;28;20850;-69
2024/03/03 05:26:29;;;;;;;1999.90;999.90;;;;;;;;;;5052102;28;20204;-68
2024/03/03 05:29:14;;;;;;;1999.90;999.90;;;;;;;;;;5051858;28;20224;-69
2024/03/03 05:32:00;;;;;;;1999.90;999.90;;;;;;;;;;5051784;28;20201;-69
2024/03/03 05:34:45;;;;;;;1999.90;999.90;;;;;;;;;;5051754;28;20229;-69
2024/03/03 05:37:30;;;;;;;1999.90;999.90;;;;;;;;;;5050821;28;20904;-68
2024/03/03 05:40:15;;;;;;;1999.90;999.90;;;;;;;;;;5051874;28;20479;-68
2024/03/03 05:43:00;;;;;;;1999.90;999.90;;;;;;;;;;5051605;28;20208;-68
2024/03/03 05:45:46;;;;;;;1999.90;999.90;;;;;;;;;;5050800;28;20744;-68
2024/03/03 05:48:32;;;;;;;1999.90;999.90;;;;;;;;;;5050262;28;20344;-68
2024/03/03 05:51:17;;;;;;;1999.90;999.90;;;;;;;;;;5051301;28;20204;-68
2024/03/03 05:54:03;;;;;;;1999.90;999.90;;;;;;;;;;5050594;28;20213;-69
2024/03/03 05:56:47;;;;;;;1999.90;999.90;;;;;;;;;;5051459;28;20332;-69
2024/03/03 05:59:32;;;;;;;1999.90;999.90;;;;;;;;;;5051764;28;20205;-68
2024/03/03 06:02:17;;;;;;;1999.90;999.90;;;;;;;;;;5050740;28;20595;-69
2024/03/03 06:05:04;;;;;;;1999.90;999.90;;;;;;;;;;5051245;28;20639;-67
2024/03/03 06:07:49;;;;;;;1999.90;999.90;;;;;;;;;;5050950;28;20209;-69
2024/03/03 06:10:34;;;;;;;1999.90;999.90;;;;;;;;;;5050930;28;20341;-68
2024/03/03 06:13:19;;;;;;;1999.90;999.90;;;;;;;;;;5050059;28;20432;-69
2024/03/03 06:16:04;;;;;;;1999.90;999.90;;;;;;;;;;5051638;28;20312;-69
2024/03/03 06:18:49;;;;;;;1999.90;999.90;;;;;;;;;;5054790;28;20664;-68
2024/03/03 06:21:36;;;;;;;1999.90;999.90;;;;;;;;;;5054808;28;20950;-68
2024/03/03 06:24:20;;;;;;;1999.90;999.90;;;;;;;;;;5054729;28;20213;-69
2024/03/03 06:27:05;;;;;;;1999.90;999.90;;;;;;;;;;5055181;28;20209;-69
2024/03/03 06:29:50;;;;;;;1999.90;999.90;;;;;;;;;;5053813;28;21052;-69
2024/03/03 06:32:35;;;;;;;1999.90;999.90;;;;;;;;;;5054725;28;20343;-69
2024/03/03 06:35:20;;;;;;;1999.90;999.90;;;;;;;;;;5054455;28;20732;-68
2024/03/03 06:38:06;;;;;;;1999.90;999.90;;;;;;;;;;5054792;28;20291;-68
2024/03/03 06:40:51;;;;;;;1999.90;999.90;;;;;;;;;;5053893;28;20331;-68
2024/03/03 06:43:36;;;;;;;1999.90;999.90;;;;;;;;;;5045208;28;20205;-68
2024/03/03 06:46:21;;;;;;;1999.90;999.90;;;;;;;;;;5054800;28;20311;-69
2024/03/03 06:49:06;;;;;;;1999.90;999.90;;;;;;;;;;5034728;28;20353;-68
2024/03/03 06:51:50;;;;;;;1999.90;999.90;;;;;;;;;;5034245;28;20209;-69
2024/03/03 06:54:37;;;;;;;1999.90;999.90;;;;;;;;;;5034735;28;20230;-68
2024/03/03 06:57:22;;;;;;;1999.90;999.90;;;;;;;;;;5034518;28;20590;-69
2024/03/03 07:00:07;;;;;;;1999.90;999.90;;;;;;;;;;5047439;28;20206;-69
2024/03/03 07:03:19;;;;;;;1999.90;999.90;;;;;;;;;;5053892;28;20233;-68
2024/03/03 07:06:04;;;;;;;1999.90;999.90;;;;;;;;;;5044294;28;20408;-69
2024/03/03 07:08:49;;;;;;;1999.90;999.90;;;;;;;;;;5054026;28;20220;-69
2024/03/03 07:11:36;;;;;;;1999.90;999.90;;;;;;;;;;5054295;28;20201;-68
2024/03/03 07:14:21;;;;;;;1999.90;999.90;;;;;;;;;;5053467;28;20663;-68
2024/03/03 07:17:06;;;;;;;1999.90;999.90;;;;;;;;;;5043421;28;20786;-68
2024/03/03 07:19:51;;;;;;;1999.90;999.90;;;;;;;;;;5054131;28;20197;-68
2024/03/03 07:22:36;;;;;;;1999.90;999.90;;;;;;;;;;5034018;28;20329;-67
2024/03/03 07:25:21;;;;;;;1999.90;999.90;;;;;;;;;;5033260;28;20245;-69
2024/03/03 07:28:08;;;;;;;1999.90;999.90;;;;;;;;;;5034230;28;20300;-68
2024/03/03 07:30:53;;;;;;;1999.90;999.90;;;;;;;;;;5039977;28;20259;-68
2024/03/03 07:33:39;;;;;;;1999.90;999.90;;;;;;;;;;5054077;28;20287;-68
2024/03/03 07:36:24;;;;;;;1999.90;999.90;;;;;;;;;;5053864;28;20237;-68
2024/03/03 07:39:09;;;;;;;1999.90;999.90;;;;;;;;;;5054219;28;20341;-68
2024/03/03 07:41:54;;;;;;;1999.90;999.90;;;;;;;;;;5053849;28;20287;-68
2024/03/03 07:44:40;;;;;;;1999.90;999.90;;;;;;;;;;5054214;28;20225;-71
2024/03/03 07:47:25;;;;;;;1999.90;999.90;;;;;;;;;;5039036;28;20345;-70
2024/03/03 07:50:10;;;;;;;1999.90;999.90;;;;;;;;;;5042598;28;20311;-70
2024/03/03 07:52:55;;;;;;;1999.90;999.90;;;;;;;;;;5044147;28;20926;-71
2024/03/03 07:55:40;;;;;;;1999.90;999.90;;;;;;;;;;5039622;28;20228;-70
2024/03/03 07:58:26;;;;;;;1999.90;999.90;;;;;;;;;;5035496;28;20402;-70
2024/03/03 08:01:12;;;;;;;1999.90;999.90;;;;;;;;;;5048917;28;20340;-70
2024/03/03 08:03:57;;;;;;;1999.90;999.90;;;;;;;;;;5041329;28;20209;-70
2024/03/03 08:06:42;;;;;;;1999.90;999.90;;;;;;;;;;5040820;28;20889;-68
2024/03/03 08:09:27;;;;;;;1999.90;999.90;;;;;;;;;;5036887;28;20230;-71
2024/03/03 08:12:12;;;;;;;1999.90;999.90;;;;;;;;;;5043108;28;20836;-70
2024/03/03 08:14:57;;;;;;;1999.90;999.90;;;;;;;;;;5040686;28;20221;-70
2024/03/03 08:17:44;;;;;;;1999.90;999.90;;;;;;;;;;5043168;28;20206;-70
2024/03/03 08:20:29;;;;;;;1999.90;999.90;;;;;;;;;;5043116;28;20201;-70
2024/03/03 08:23:14;;;;;;;1999.90;999.90;;;;;;;;;;5047669;28;20229;-70
2024/03/03 08:26:00;;;;;;;1999.90;999.90;;;;;;;;;;5050117;28;20347;-70
2024/03/03 08:28:45;;;;;;;1999.90;999.90;;;;;;;;;;5045972;28;20217;-70
2024/03/03 08:31:30;;;;;;;1999.90;999.90;;;;;;;;;;5031935;28;20221;-71
2024/03/03 08:34:17;;;;;;;1999.90;999.90;;;;;;;;;;5039029;28;20252;-71
2024/03/03 08:37:02;;;;;;;1999.90;999.90;;;;;;;;;;5043534;28;20581;-71
2024/03/03 08:39:47;;;;;;;1999.90;999.90;;;;;;;;;;5034735;28;20206;-71
2024/03/03 08:42:32;;;;;;;1999.90;999.90;;;;;;;;;;5045157;28;20288;-70
2024/03/03 08:45:17;;;;;;;1999.90;999.90;;;;;;;;;;5035644;28;20280;-71
2024/03/03 08:48:02;;;;;;;1999.90;999.90;;;;;;;;;;5044856;28;20205;-71
2024/03/03 08:50:49;;;;;;;1999.90;999.90;;;;;;;;;;5038090;28;20203;-72
2024/03/03 08:53:34;;;;;;;1999.90;999.90;;;;;;;;;;5044133;28;20336;-72
2024/03/03 08:56:19;;;;;;;1999.90;999.90;;;;;;;;;;5048606;28;20603;-71
2024/03/03 08:59:04;;;;;;;1999.90;999.90;;;;;;;;;;5043710;28;20201;-72
2024/03/03 09:01:49;;;;;;;1999.90;999.90;;;;;;;;;;5042738;28;20210;-71
2024/03/03 09:04:37;;;;;;;1999.90;999.90;;;;;;;;;;5035739;28;20324;-71
2024/03/03 09:07:24;;;;;;;1999.90;999.90;;;;;;;;;;5038982;28;20568;-71
2024/03/03 09:10:09;;;;;;;1999.90;999.90;;;;;;;;;;5040649;28;20472;-71
2024/03/03 09:12:54;;;;;;;1999.90;999.90;;;;;;;;;;5043043;28;20273;-70
2024/03/03 09:15:39;;;;;;;1999.90;999.90;;;;;;;;;;5045502;28;20220;-71
2024/03/03 09:18:24;;;;;;;1999.90;999.90;;;;;;;;;;5041116;28;20338;-71
2024/03/03 09:21:09;;;;;;;1999.90;999.90;;;;;;;;;;5032407;28;20564;-70
2024/03/03 09:23:55;;;;;;;1999.90;999.90;;;;;;;;;;5034498;28;20208;-72
2024/03/03 09:26:41;;;;;;;1999.90;999.90;;;;;;;;;;5031200;28;20234;-71
2024/03/03 09:29:26;;;;;;;1999.90;999.90;;;;;;;;;;5041439;28;20226;-71
2024/03/03 09:32:11;;;;;;;1999.90;999.90;;;;;;;;;;5041380;28;20209;-70
2024/03/03 09:34:56;;;;;;;1999.90;999.90;;;;;;;;;;5049675;28;20249;-71
2024/03/03 09:37:41;;;;;;;1999.90;999.90;;;;;;;;;;5051939;28;20209;-71
2024/03/03 09:40:28;;;;;;;1999.90;999.90;;;;;;;;;;5050926;28;20276;-71
2024/03/03 09:43:15;;;;;;;1999.90;999.90;;;;;;;;;;5050975;28;20757;-72
2024/03/03 09:46:00;;;;;;;1999.90;999.90;;;;;;;;;;5051500;28;20274;-71
2024/03/03 09:48:46;;;;;;;1999.90;999.90;;;;;;;;;;5054403;28;20249;-71
2024/03/03 09:51:31;;;;;;;1999.90;999.90;;;;;;;;;;5058171;28;20338;-70
2024/03/03 09:54:18;;;;;;;1999.90;999.90;;;;;;;;;;5058367;28;20720;-70
2024/03/03 09:57:04;;;;;;;1999.90;999.90;;;;;;;;;;5058326;28;20263;-71
2024/03/03 09:59:52;;;;;;;1999.90;999.90;;;;;;;;;;5058521;28;20204;-70
2024/03/03 10:02:39;;;;;;;1999.90;999.90;;;;;;;;;;5048012;28;20953;-70
2024/03/03 10:05:25;;;;;;;1999.90;999.90;;;;;;;;;;5041483;28;20236;-70
2024/03/03 10:08:10;;;;;;;1999.90;999.90;;;;;;;;;;5042818;28;20730;-70
2024/03/03 10:10:57;;;;;;;1999.90;999.90;;;;;;;;;;5046229;28;20594;-70
2024/03/03 10:13:45;;;;;;;1999.90;999.90;;;;;;;;;;5056024;28;20210;-70
2024/03/03 10:16:32;;;;;;;1999.90;999.90;;;;;;;;;;5057110;28;20209;-71
2024/03/03 10:19:17;;;;;;;1999.90;999.90;;;;;;;;;;5057907;28;20242;-71
2024/03/03 10:22:03;;;;;;;1999.90;999.90;;;;;;;;;;5057636;28;20327;-71
2024/03/03 10:24:48;;;;;;;1999.90;999.90;;;;;;;;;;5057620;28;20228;-70
2024/03/03 10:27:33;;;;;;;1999.90;999.90;;;;;;;;;;5057996;28;20228;-71
2024/03/03 10:30:22;;;;;;;1999.90;999.90;;;;;;;;;;5057721;28;20236;-71
2024/03/03 10:33:07;;;;;;;1999.90;999.90;;;;;;;;;;5057825;28;20219;-70
2024/03/03 10:36:04;;;;;;;1999.90;999.90;;;;;;;;;;5057311;28;20778;-71
2024/03/03 10:38:50;;;;;;;1999.90;999.90;;;;;;;;;;5058050;28;20589;-71
2024/03/03 10:41:36;;;;;;;1999.90;999.90;;;;;;;;;;5057680;28;20692;-71
2024/03/03 10:44:21;;;;;;;1999.90;999.90;;;;;;;;;;5057396;28;20212;-70
2024/03/03 10:47:08;;;;;;;1999.90;999.90;;;;;;;;;;5057591;28;20221;-70
2024/03/03 10:49:54;;;;;;;1999.90;999.90;;;;;;;;;;5057180;28;20645;-71
2024/03/03 10:52:40;;;;;;;1999.90;999.90;;;;;;;;;;5057206;28;20228;-71
2024/03/03 10:55:25;;;;;;;1999.90;999.90;;;;;;;;;;5056311;28;20399;-70
2024/03/03 10:58:11;;;;;;;1999.90;999.90;;;;;;;;;;5057636;28;20618;-71
2024/03/03 11:00:56;;;;;;;1999.90;999.90;;;;;;;;;;5055230;28;20283;-71
2024/03/03 11:03:43;;;;;;;1999.90;999.90;;;;;;;;;;5052962;28;20252;-70
2024/03/03 11:06:28;;;;;;;1999.90;999.90;;;;;;;;;;5053392;28;20229;-70
2024/03/03 11:09:13;;;;;;;1999.90;999.90;;;;;;;;;;5054148;28;20208;-71
2024/03/03 11:12:00;;;;;;;1999.90;999.90;;;;;;;;;;5054283;28;20205;-71
2024/03/03 11:14:46;;;;;;;1999.90;999.90;;;;;;;;;;5054076;28;20356;-71
2024/03/03 11:17:33;;;;;;;1999.90;999.90;;;;;;;;;;5053871;28;20204;-71
2024/03/03 11:20:22;;;;;;;1999.90;999.90;;;;;;;;;;5048184;28;20278;-71
2024/03/03 11:23:11;;;;;;;1999.90;999.90;;;;;;;;;;5053419;28;20283;-71
2024/03/03 11:26:00;;;;;;;1999.90;999.90;;;;;;;;;;5052715;28;20220;-71
2024/03/03 11:28:48;;;;;;;1999.90;999.90;;;;;;;;;;5050576;28;20336;-71
2024/03/03 11:31:33;;;;;;;1999.90;999.90;;;;;;;;;;5040508;28;20571;-71
2024/03/03 11:34:18;;;;;;;1999.90;999.90;;;;;;;;;;5040339;28;20226;-71
2024/03/03 11:37:06;;;;;;;1999.90;999.90;;;;;;;;;;5035735;28;20202;-73
2024/03/03 11:39:53;;;;;;;1999.90;999.90;;;;;;;;;;5053698;28;20201;-72
2024/03/03 11:42:39;;;;;;;1999.90;999.90;;;;;;;;;;5043543;28;20417;-70
2024/03/03 11:45:39;;;;;;;1999.90;999.90;;;;;;;;;;5052663;28;20592;-70
2024/03/03 11:48:24;;;;;;;1999.90;999.90;;;;;;;;;;5053398;28;20291;-70
2024/03/03 11:51:24;;;;;;;1999.90;999.90;;;;;;;;;;5052738;28;20708;-69
2024/03/03 11:54:13;;;;;;;1999.90;999.90;;;;;;;;;;5052646;28;20693;-71
2024/03/03 11:56:58;;;;;;;1999.90;999.90;;;;;;;;;;5041086;28;20330;-70
2024/03/03 11:59:44;;;;;;;1999.90;999.90;;;;;;;;;;5050746;28;20220;-70
2024/03/03 12:02:30;;;;;;;1999.90;999.90;;;;;;;;;;5052854;28;20574;-70
2024/03/03 12:05:16;;;;;;;1999.90;999.90;;;;;;;;;;5048945;28;20224;-71
2024/03/03 12:08:01;;;;;;;1999.90;999.90;;;;;;;;;;5051141;28;20279;-71
2024/03/03 12:10:47;;;;;;;1999.90;999.90;;;;;;;;;;5052731;28;20715;-71
2024/03/03 12:13:32;;;;;;;1999.90;999.90;;;;;;;;;;5052858;28;20217;-70
2024/03/03 12:16:17;;;;;;;1999.90;999.90;;;;;;;;;;5053199;28;20228;-70
2024/03/03 12:19:02;;;;;;;1999.90;999.90;;;;;;;;;;5045140;28;20267;-73
2024/03/03 12:21:47;;;;;;;1999.90;999.90;;;;;;;;;;5035033;28;20210;-71
2024/03/03 12:24:33;;;;;;;1999.90;999.90;;;;;;;;;;5042045;28;20243;-71
2024/03/03 12:27:19;;;;;;;1999.90;999.90;;;;;;;;;;5039764;28;20095;-71
2024/03/03 12:30:09;;;;;;;1999.90;999.90;;;;;;;;;;5039793;28;20252;-72
2024/03/03 12:32:54;;;;;;;1999.90;999.90;;;;;;;;;;5039252;28;20213;-72
2024/03/03 12:35:39;;;;;;;1999.90;999.90;;;;;;;;;;5034688;28;20712;-71
2024/03/03 12:38:23;;;;;;;1999.90;999.90;;;;;;;;;;5042012;28;20206;-72
2024/03/03 12:41:08;;;;;;;1999.90;999.90;;;;;;;;;;5048376;28;20700;-71
2024/03/03 12:43:56;;;;;;;1999.90;999.90;;;;;;;;;;5041926;28;20206;-70
2024/03/03 12:46:41;;;;;;;1999.90;999.90;;;;;;;;;;5038288;28;20489;-71
2024/03/03 12:49:28;;;;;;;1999.90;999.90;;;;;;;;;;5040831;28;20312;-71
2024/03/03 12:52:14;;;;;;;1999.90;999.90;;;;;;;;;;5038386;28;20223;-71
2024/03/03 12:54:59;;;;;;;1999.90;999.90;;;;;;;;;;5039714;28;20731;-70
2024/03/03 12:57:44;;;;;;;1999.90;999.90;;;;;;;;;;5044154;28;20299;-71
2024/03/03 13:00:31;;;;;;;1999.90;999.90;;;;;;;;;;5047197;28;20222;-69
2024/03/03 13:03:18;;;;;;;1999.90;999.90;;;;;;;;;;5039148;28;20194;-70
2024/03/03 13:06:03;;;;;;;1999.90;999.90;;;;;;;;;;5043547;28;20791;-69
2024/03/03 13:08:51;;;;;;;1999.90;999.90;;;;;;;;;;5038258;28;20206;-70
2024/03/03 13:11:36;;;;;;;1999.90;999.90;;;;;;;;;;5045961;28;20231;-71
2024/03/03 13:14:21;;;;;;;1999.90;999.90;;;;;;;;;;5037051;28;20764;-70
2024/03/03 13:17:07;;;;;;;1999.90;999.90;;;;;;;;;;5041675;28;20225;-70
2024/03/03 13:19:54;;;;;;;1999.90;999.90;;;;;;;;;;5043239;28;20255;-71
2024/03/03 13:22:39;;;;;;;1999.90;999.90;;;;;;;;;;5043963;28;20210;-70
2024/03/03 13:25:24;;;;;;;1999.90;999.90;;;;;;;;;;5038033;28;20228;-70
2024/03/03 13:28:12;;;;;;;1999.90;999.90;;;;;;;;;;5036192;28;20332;-71
2024/03/03 13:30:58;;;;;;;1999.90;999.90;;;;;;;;;;5040509;28;20662;-70
2024/03/03 13:33:44;;;;;;;1999.90;999.90;;;;;;;;;;5034571;28;20214;-70
2024/03/03 13:36:29;;;;;;;1999.90;999.90;;;;;;;;;;5037625;28;20252;-71
2024/03/03 13:39:14;;;;;;;1999.90;999.90;;;;;;;;;;5037164;28;20774;-69
2024/03/03 13:41:59;;;;;;;1999.90;999.90;;;;;;;;;;5036059;28;20320;-70
2024/03/03 13:44:44;;;;;;;1999.90;999.90;;;;;;;;;;5040623;28;20232;-70
2024/03/03 13:47:29;;;;;;;1999.90;999.90;;;;;;;;;;5044221;28;20206;-68
2024/03/03 13:50:15;;;;;;;1999.90;999.90;;;;;;;;;;5037977;28;20221;-70
2024/03/03 13:53:00;;;;;;;1999.90;999.90;;;;;;;;;;5040874;28;20237;-70
2024/03/03 13:55:45;;;;;;;1999.90;999.90;;;;;;;;;;5032940;28;20228;-71
2024/03/03 13:58:31;;;;;;;1999.90;999.90;;;;;;;;;;5040795;28;20222;-70
2024/03/03 14:01:16;;;;;;;1999.90;999.90;;;;;;;;;;5038474;28;20697;-71
2024/03/03 14:04:02;;;;;;;1999.90;999.90;;;;;;;;;;5039683;28;20329;-70
2024/03/03 14:06:48;;;;;;;1999.90;999.90;;;;;;;;;;5043565;28;20357;-71
2024/03/03 14:09:33;;;;;;;1999.90;999.90;;;;;;;;;;5044284;28;20414;-70
2024/03/03 14:12:20;;;;;;;1999.90;999.90;;;;;;;;;;5038824;28;20303;-71
2024/03/03 14:15:06;;;;;;;1999.90;999.90;;;;;;;;;;5042430;28;20225;-71
2024/03/03 14:17:51;;;;;;;1999.90;999.90;;;;;;;;;;5043308;28;20261;-70
2024/03/03 14:20:38;;;;;;;1999.90;999.90;;;;;;;;;;5043562;28;20256;-71
2024/03/03 14:23:24;;;;;;;1999.90;999.90;;;;;;;;;;5047324;28;20704;-71
2024/03/03 14:26:09;;;;;;;1999.90;999.90;;;;;;;;;;5049846;28;20315;-72
2024/03/03 14:28:54;;;;;;;1999.90;999.90;;;;;;;;;;5050355;28;20408;-72
2024/03/03 14:31:39;;;;;;;1999.90;999.90;;;;;;;;;;5050120;28;20759;-72
2024/03/03 14:34:24;;;;;;;1999.90;999.90;;;;;;;;;;5049986;28;20352;-72
2024/03/03 14:37:14;;;;;;;1999.90;999.90;;;;;;;;;;5055582;28;20205;-73
2024/03/03 14:40:00;;;;;;;1999.90;999.90;;;;;;;;;;5055316;28;20199;-72
2024/03/03 14:42:45;;;;;;;1999.90;999.90;;;;;;;;;;5054708;28;20232;-71
2024/03/03 14:45:32;;;;;;;1999.90;999.90;;;;;;;;;;5055276;28;20229;-72
2024/03/03 14:48:17;;;;;;;1999.90;999.90;;;;;;;;;;5054978;28;20204;-71
2024/03/03 14:51:02;;;;;;;1999.90;999.90;;;;;;;;;;5054785;28;20289;-71
2024/03/03 14:53:47;;;;;;;1999.90;999.90;;;;;;;;;;5054651;28;20209;-72
2024/03/03 14:56:34;;;;;;;1999.90;999.90;;;;;;;;;;5054736;28;20201;-71
2024/03/03 14:59:19;;;;;;;1999.90;999.90;;;;;;;;;;5054785;28;20209;-71
2024/03/03 15:02:04;;;;;;;1999.90;999.90;;;;;;;;;;5054159;28;20460;-71
2024/03/03 15:04:50;;;;;;;1999.90;999.90;;;;;;;;;;5054398;28;20229;-71
2024/03/03 15:07:35;;;;;;;1999.90;999.90;;;;;;;;;;5054430;28;20687;-71
2024/03/03 15:10:20;;;;;;;1999.90;999.90;;;;;;;;;;5054394;28;20303;-72
2024/03/03 15:13:06;;;;;;;1999.90;999.90;;;;;;;;;;5054307;28;20209;-72
2024/03/03 15:15:52;;;;;;;1999.90;999.90;;;;;;;;;;5054440;28;20237;-71
2024/03/03 15:18:37;;;;;;;1999.90;999.90;;;;;;;;;;5054037;28;20209;-70
2024/03/03 15:21:22;;;;;;;1999.90;999.90;;;;;;;;;;5053434;28;20402;-71
2024/03/03 15:24:07;;;;;;;1999.90;999.90;;;;;;;;;;5054217;28;20248;-71
2024/03/03 15:26:51;;;;;;;1999.90;999.90;;;;;;;;;;5054073;28;20255;-71
2024/03/03 15:29:38;;;;;;;1999.90;999.90;;;;;;;;;;5054249;28;20201;-71
2024/03/03 15:32:23;;;;;;;1999.90;999.90;;;;;;;;;;5053669;28;20240;-70
2024/03/03 15:35:08;;;;;;;1999.90;999.90;;;;;;;;;;5053788;28;20661;-71
2024/03/03 15:37:53;;;;;;;1999.90;999.90;;;;;;;;;;5054084;28;20408;-71
2024/03/03 15:40:38;;;;;;;1999.90;999.90;;;;;;;;;;5053944;28;20343;-71
2024/03/03 15:43:24;;;;;;;1999.90;999.90;;;;;;;;;;5053633;28;20275;-70
2024/03/03 15:46:10;;;;;;;1999.90;999.90;;;;;;;;;;5052984;28;20225;-71
2024/03/03 15:48:55;;;;;;;1999.90;999.90;;;;;;;;;;5053627;28;20402;-71
2024/03/03 15:51:40;;;;;;;1999.90;999.90;;;;;;;;;;5053315;28;20225;-72
2024/03/03 15:54:25;;;;;;;1999.90;999.90;;;;;;;;;;5053897;28;20363;-71
2024/03/03 15:57:10;;;;;;;1999.90;999.90;;;;;;;;;;5053545;28;20222;-71
2024/03/03 15:59:54;;;;;;;1999.90;999.90;;;;;;;;;;5053631;28;20204;-70
2024/03/03 16:02:42;;;;;;;1999.90;999.90;;;;;;;;;;5053265;28;20205;-70
2024/03/03 16:05:28;;;;;;;1999.90;999.90;;;;;;;;;;5053559;28;20307;-71
2024/03/03 16:08:13;;;;;;;1999.90;999.90;;;;;;;;;;5053458;28;20221;-71
2024/03/03 16:10:58;;;;;;;1999.90;999.90;;;;;;;;;;5053306;28;20297;-71
2024/03/03 16:13:42;;;;;;;1999.90;999.90;;;;;;;;;;5053355;28;20312;-72
2024/03/03 16:16:29;;;;;;;1999.90;999.90;;;;;;;;;;5052031;28;20397;-71
2024/03/03 16:19:15;;;;;;;1999.90;999.90;;;;;;;;;;5053205;28;20313;-71
2024/03/03 16:22:00;;;;;;;1999.90;999.90;;;;;;;;;;5052960;28;20198;-72
2024/03/03 16:24:45;;;;;;;1999.90;999.90;;;;;;;;;;5053089;28;20267;-72
2024/03/03 16:27:30;;;;;;;1999.90;999.90;;;;;;;;;;5075056;28;20204;-68
2024/03/03 16:30:16;;;;;;;1999.90;999.90;;;;;;;;;;5077631;28;20228;-69
2024/03/03 16:33:02;;;;;;;1999.90;999.90;;;;;;;;;;5077042;28;20270;-68
2024/03/03 16:35:48;;;;;;;1999.90;999.90;;;;;;;;;;5077469;28;20217;-69
2024/03/03 16:38:34;;;;;;;1999.90;999.90;;;;;;;;;;5077259;28;20213;-69
2024/03/03 16:41:19;;;;;;;1999.90;999.90;;;;;;;;;;5077258;28;20212;-69
2024/03/03 16:44:04;;;;;;;1999.90;999.90;;;;;;;;;;5077296;28;20206;-68
2024/03/03 16:46:49;;;;;;;1999.90;999.90;;;;;;;;;;5077101;28;20198;-68
2024/03/03 16:49:34;;;;;;;1999.90;999.90;;;;;;;;;;5076845;28;20463;-69
2024/03/03 16:52:21;;;;;;;1999.90;999.90;;;;;;;;;;5077070;28;20244;-70
2024/03/03 16:55:07;;;;;;;1999.90;999.90;;;;;;;;;;5076798;28;20282;-69
2024/03/03 16:57:52;;;;;;;1999.90;999.90;;;;;;;;;;5077149;28;20250;-69
2024/03/03 17:00:37;;;;;;;1999.90;999.90;;;;;;;;;;5077445;28;20298;-69
2024/03/03 17:03:23;;;;;;;1999.90;999.90;;;;;;;;;;5076711;28;20205;-69
2024/03/03 17:06:09;;;;;;;1999.90;999.90;;;;;;;;;;5076746;28;20236;-69
2024/03/03 17:08:55;;;;;;;1999.90;999.90;;;;;;;;;;5075599;28;20396;-69
2024/03/03 17:11:40;;;;;;;1999.90;999.90;;;;;;;;;;5076904;28;20282;-68
2024/03/03 17:14:25;;;;;;;1999.90;999.90;;;;;;;;;;5077111;28;20312;-69
2024/03/03 17:17:11;;;;;;;1999.90;999.90;;;;;;;;;;5076796;28;20192;-70
2024/03/03 17:19:56;;;;;;;1999.90;999.90;;;;;;;;;;5077167;28;20219;-70
2024/03/03 17:22:41;;;;;;;1999.90;999.90;;;;;;;;;;5075999;28;20221;-68
2024/03/03 17:25:27;;;;;;;1999.90;999.90;;;;;;;;;;5076883;28;20216;-69
2024/03/03 17:28:13;;;;;;;1999.90;999.90;;;;;;;;;;5076587;28;20180;-68
2024/03/03 17:30:58;;;;;;;1999.90;999.90;;;;;;;;;;5076866;28;20217;-70
2024/03/03 17:33:44;;;;;;;1999.90;999.90;;;;;;;;;;5076685;28;20251;-69
2024/03/03 17:36:29;;;;;;;1999.90;999.90;;;;;;;;;;5076835;28;20296;-69
2024/03/03 17:39:15;;;;;;;1999.90;999.90;;;;;;;;;;5076656;28;20213;-69
2024/03/03 17:42:01;;;;;;;1999.90;999.90;;;;;;;;;;5076268;28;20408;-70
2024/03/03 17:44:46;;;;;;;1999.90;999.90;;;;;;;;;;5076014;28;20244;-68
2024/03/03 17:47:31;;;;;;;1999.90;999.90;;;;;;;;;;5075576;28;20227;-68
2024/03/03 17:50:17;;;;;;;1999.90;999.90;;;;;;;;;;5075441;28;20287;-69
2024/03/03 17:53:02;;;;;;;1999.90;999.90;;;;;;;;;;5075169;28;20235;-68
2024/03/03 17:55:47;;;;;;;1999.90;999.90;;;;;;;;;;5076259;28;20269;-69
2024/03/03 17:58:34;;;;;;;1999.90;999.90;;;;;;;;;;5076858;28;20216;-69
2024/03/03 18:01:19;;;;;;;1999.90;999.90;;;;;;;;;;5074012;28;20468;-69
2024/03/03 18:04:04;;;;;;;1999.90;999.90;;;;;;;;;;5075777;28;20383;-69
2024/03/03 18:06:49;;;;;;;1999.90;999.90;;;;;;;;;;5075325;28;20213;-69
2024/03/03 18:09:35;;;;;;;1999.90;999.90;;;;;;;;;;5076774;28;20208;-69
2024/03/03 18:12:20;;;;;;;1999.90;999.90;;;;;;;;;;5079496;28;20234;-69
2024/03/03 18:15:07;;;;;;;1999.90;999.90;;;;;;;;;;5078956;28;20236;-72
2024/03/03 18:17:52;;;;;;;1999.90;999.90;;;;;;;;;;5078704;28;20213;-68
2024/03/03 18:20:37;;;;;;;1999.90;999.90;;;;;;;;;;5080093;28;20195;-69
2024/03/03 18:23:24;;;;;;;1999.90;999.90;;;;;;;;;;5079581;28;20208;-69
2024/03/03 18:26:09;;;;;;;1999.90;999.90;;;;;;;;;;5080336;28;20251;-69
2024/03/03 18:28:54;;;;;;;1999.90;999.90;;;;;;;;;;5079774;28;20203;-69
2024/03/03 18:31:41;;;;;;;1999.90;999.90;;;;;;;;;;5079981;28;20218;-69
2024/03/03 18:34:26;;;;;;;1999.90;999.90;;;;;;;;;;5079860;28;20420;-70
2024/03/03 18:37:11;;;;;;;1999.90;999.90;;;;;;;;;;5080362;28;20244;-70
2024/03/03 18:39:57;;;;;;;1999.90;999.90;;;;;;;;;;5080294;28;20208;-68
2024/03/03 18:42:42;;;;;;;1999.90;999.90;;;;;;;;;;5079765;28;20255;-69
2024/03/03 18:45:28;;;;;;;1999.90;999.90;;;;;;;;;;5077850;28;20227;-68
2024/03/03 18:48:14;;;;;;;1999.90;999.90;;;;;;;;;;5056273;28;20731;-68
2024/03/03 18:50:59;;;;;;;1999.90;999.90;;;;;;;;;;5054856;28;20211;-69
2024/03/03 18:53:44;;;;;;;1999.90;999.90;;;;;;;;;;5055038;28;20205;-69
2024/03/03 18:56:29;;;;;;;1999.90;999.90;;;;;;;;;;5055096;28;20234;-69
2024/03/03 18:59:14;;;;;;;1999.90;999.90;;;;;;;;;;5067135;28;20239;-69